Airfield :
LOGIN :

Register | Disclaimer

   EN    FR    IT 

 










Legend :    VFR   Marginal VFR   IFR   Intensive IFR   Very Intensive IFR
Visi :
Ceiling :
>= 8 km
>= 3000ft
5 to 8 km
1000 to 3000 ft
1500m to 5 km
500 to 1000 ft
800 to 1500m
200 to 500 ft
< 800m
< 200 ft
Symbols :   Thunderstorms  Fog  Heavy snow  Heavy precipitations  Wind > 20 kt
SIGMETs :     Misc.  Thunderstorms  Icing  Turbulence  Mountain Waves  Volcanic Ashes






- Airport Elevation : 1416 ft
- IATA code : ZRH


LSZH - Zurich

CURRENT METAR :
  • 211950Z 19005KT 160V220 9999 VCSH FEW060TCU BKN075 12/04 Q1017 TEMPO SHRA

EXPIRED METARs :
  • 211920Z 19007KT 9999 VCSH FEW060TCU BKN065 13/04 Q1016 TEMPO SHRA
  • 211850Z 25004KT 9999 VCSH FEW070TCU BKN075 13/03 Q1016 NOSIG
  • 211820Z 36005KT 9999 VCSH FEW070TCU SCT075 14/01 Q1015 NOSIG
  • 211750Z 36007KT 9999 VCSH FEW070 FEW075TCU 15/01 Q1015 NOSIG

TAF TAF LSZH
Valid from the 21 at 18:00 until the 23 at 00:00 UTC


211725Z 2118/2224 VRB02KT 9999 FEW070 TX17/2215Z TN03/2204Z
PROB30
TEMPO 2118/2120 33010KT SHRA SCT060TCU
BECMG 2122/2201 CAVOK
PROB40 2202/2205 6000 MIFG NSC
BECMG 2208/2210 9999 SCT060
BECMG 2210/2212 06008KT
PROB30
TEMPO 2212/2217 SHRA SCT060TCU
BECMG 2218/2221 VRB02KT
ATIS : +41 43 816 2295 (DEP) +41 43 816 2294 (ARR)



MET'MAP, your aeronautical weather chart ! - Copyright ORBIFLY December 2007 - Disclaimer

ORBIFLY MET'MAP TEAM :

Programming & Development : Alexandra Zaïnal
Concept & original design : Baudouin d'Aumeries
Assistance for programming : Marc-Olivier Méhu
Technical & hardware support : Manuel Goepfert

Contact : metmap@orbifly.com




SOURCES & CREDITS :

   NOAA